sensor_id;sensor_type;location;lat;lon;timestamp;pressure;altitude;pressure_sealevel;temperature;humidity
29315;BME280;16320;53.954;9.506;2022-09-12T00:03:03;101757.84;;;13.12;100.00
29315;BME280;16320;53.954;9.506;2022-09-12T00:06:18;101759.63;;;13.32;100.00
29315;BME280;16320;53.954;9.506;2022-09-12T00:09:26;101760.53;;;13.50;100.00
29315;BME280;16320;53.954;9.506;2022-09-12T00:12:31;101751.47;;;13.56;100.00
29315;BME280;16320;53.954;9.506;2022-09-12T00:15:43;101752.00;;;13.63;100.00
29315;BME280;16320;53.954;9.506;2022-09-12T00:18:47;101748.19;;;13.51;100.00
29315;BME280;16320;53.954;9.506;2022-09-12T00:21:52;101745.47;;;13.33;100.00
29315;BME280;16320;53.954;9.506;2022-09-12T00:24:57;101736.13;;;13.26;100.00
29315;BME280;16320;53.954;9.506;2022-09-12T00:28:01;101733.28;;;13.12;100.00
29315;BME280;16320;53.954;9.506;2022-09-12T00:31:12;101727.34;;;13.07;100.00
29315;BME280;16320;53.954;9.506;2022-09-12T00:34:17;101729.34;;;13.02;100.00
29315;BME280;16320;53.954;9.506;2022-09-12T00:37:21;101727.78;;;12.97;100.00
29315;BME280;16320;53.954;9.506;2022-09-12T00:40:25;101723.78;;;13.08;100.00
29315;BME280;16320;53.954;9.506;2022-09-12T00:43:41;101721.22;;;13.25;100.00
29315;BME280;16320;53.954;9.506;2022-09-12T00:46:49;101723.31;;;13.38;100.00
29315;BME280;16320;53.954;9.506;2022-09-12T00:50:06;101725.50;;;13.47;100.00
29315;BME280;16320;53.954;9.506;2022-09-12T00:53:12;101726.94;;;13.54;100.00
29315;BME280;16320;53.954;9.506;2022-09-12T00:56:17;101732.84;;;13.59;100.00
29315;BME280;16320;53.954;9.506;2022-09-12T00:59:43;101720.63;;;13.57;100.00
29315;BME280;16320;53.954;9.506;2022-09-12T01:03:03;101721.44;;;13.59;100.00
29315;BME280;16320;53.954;9.506;2022-09-12T01:06:19;101724.91;;;13.59;100.00
29315;BME280;16320;53.954;9.506;2022-09-12T01:09:25;101725.91;;;13.57;100.00
29315;BME280;16320;53.954;9.506;2022-09-12T01:12:31;101736.31;;;13.60;100.00
29315;BME280;16320;53.954;9.506;2022-09-12T01:15:37;101735.47;;;13.59;100.00
29315;BME280;16320;53.954;9.506;2022-09-12T01:19:07;101738.34;;;13.54;100.00
29315;BME280;16320;53.954;9.506;2022-09-12T01:39:27;101671.34;;;12.02;100.00
29315;BME280;16320;53.954;9.506;2022-09-12T01:43:11;101673.16;;;12.01;100.00
29315;BME280;16320;53.954;9.506;2022-09-12T01:46:46;101665.66;;;11.90;100.00
29315;BME280;16320;53.954;9.506;2022-09-12T01:53:27;101651.13;;;11.82;100.00
29315;BME280;16320;53.954;9.506;2022-09-12T01:56:37;101657.03;;;11.87;100.00
29315;BME280;16320;53.954;9.506;2022-09-12T01:59:47;101659.53;;;12.12;100.00
29315;BME280;16320;53.954;9.506;2022-09-12T02:03:09;101658.13;;;12.24;100.00
29315;BME280;16320;53.954;9.506;2022-09-12T02:06:43;101658.97;;;12.24;100.00
29315;BME280;16320;53.954;9.506;2022-09-12T02:10:02;101657.00;;;12.30;100.00
29315;BME280;16320;53.954;9.506;2022-09-12T02:13:36;101652.84;;;12.44;100.00
29315;BME280;16320;53.954;9.506;2022-09-12T02:16:48;101659.50;;;12.72;100.00
29315;BME280;16320;53.954;9.506;2022-09-12T02:20:05;101663.84;;;12.92;100.00
29315;BME280;16320;53.954;9.506;2022-09-12T02:23:29;101672.47;;;13.15;100.00
29315;BME280;16320;53.954;9.506;2022-09-12T02:26:44;101676.56;;;13.21;100.00
29315;BME280;16320;53.954;9.506;2022-09-12T02:29:50;101677.03;;;13.11;100.00
29315;BME280;16320;53.954;9.506;2022-09-12T02:36:55;101682.72;;;13.21;100.00
29315;BME280;16320;53.954;9.506;2022-09-12T02:40:04;101684.56;;;13.19;100.00
29315;BME280;16320;53.954;9.506;2022-09-12T02:43:10;101687.88;;;13.24;100.00
29315;BME280;16320;53.954;9.506;2022-09-12T02:46:26;101686.28;;;13.20;100.00
29315;BME280;16320;53.954;9.506;2022-09-12T02:49:32;101685.44;;;13.19;100.00
29315;BME280;16320;53.954;9.506;2022-09-12T02:52:38;101674.19;;;13.16;100.00
29315;BME280;16320;53.954;9.506;2022-09-12T02:55:43;101676.81;;;12.97;100.00
29315;BME280;16320;53.954;9.506;2022-09-12T02:58:48;101660.84;;;12.81;100.00
29315;BME280;16320;53.954;9.506;2022-09-12T03:01:59;101652.09;;;12.80;100.00
29315;BME280;16320;53.954;9.506;2022-09-12T03:08:52;101653.94;;;12.97;100.00
29315;BME280;16320;53.954;9.506;2022-09-12T03:12:03;101645.81;;;12.83;100.00
29315;BME280;16320;53.954;9.506;2022-09-12T03:15:45;101641.13;;;12.71;100.00
29315;BME280;16320;53.954;9.506;2022-09-12T03:18:57;101628.44;;;12.60;100.00
29315;BME280;16320;53.954;9.506;2022-09-12T03:25:33;101628.53;;;12.38;100.00
29315;BME280;16320;53.954;9.506;2022-09-12T03:28:40;101621.97;;;12.27;100.00
29315;BME280;16320;53.954;9.506;2022-09-12T03:31:53;101625.50;;;12.26;100.00
29315;BME280;16320;53.954;9.506;2022-09-12T03:34:57;101629.16;;;12.24;100.00
29315;BME280;16320;53.954;9.506;2022-09-12T03:38:02;101625.81;;;12.20;100.00
29315;BME280;16320;53.954;9.506;2022-09-12T03:41:07;101627.50;;;12.21;100.00
29315;BME280;16320;53.954;9.506;2022-09-12T03:44:11;101628.09;;;12.28;100.00
29315;BME280;16320;53.954;9.506;2022-09-12T03:47:15;101632.88;;;12.39;100.00
29315;BME280;16320;53.954;9.506;2022-09-12T03:50:20;101636.16;;;12.44;100.00
29315;BME280;16320;53.954;9.506;2022-09-12T03:53:24;101636.03;;;12.47;100.00
29315;BME280;16320;53.954;9.506;2022-09-12T03:56:29;101627.84;;;12.53;100.00
29315;BME280;16320;53.954;9.506;2022-09-12T03:59:34;101621.56;;;12.56;100.00
29315;BME280;16320;53.954;9.506;2022-09-12T04:02:39;101619.16;;;12.51;100.00
29315;BME280;16320;53.954;9.506;2022-09-12T04:05:43;101620.72;;;12.55;100.00
29315;BME280;16320;53.954;9.506;2022-09-12T04:08:53;101622.31;;;12.59;100.00
29315;BME280;16320;53.954;9.506;2022-09-12T04:11:58;101632.13;;;12.75;100.00
29315;BME280;16320;53.954;9.506;2022-09-12T04:15:02;101631.84;;;12.81;100.00
29315;BME280;16320;53.954;9.506;2022-09-12T04:18:07;101630.28;;;12.77;100.00
29315;BME280;16320;53.954;9.506;2022-09-12T04:21:15;101633.84;;;12.76;100.00
29315;BME280;16320;53.954;9.506;2022-09-12T04:24:20;101624.22;;;12.75;100.00
29315;BME280;16320;53.954;9.506;2022-09-12T04:27:24;101620.47;;;12.80;100.00
29315;BME280;16320;53.954;9.506;2022-09-12T04:30:29;101631.50;;;12.89;100.00
29315;BME280;16320;53.954;9.506;2022-09-12T04:33:35;101635.25;;;13.02;100.00
29315;BME280;16320;53.954;9.506;2022-09-12T04:36:39;101634.69;;;13.14;100.00
29315;BME280;16320;53.954;9.506;2022-09-12T04:39:43;101640.25;;;13.08;100.00
29315;BME280;16320;53.954;9.506;2022-09-12T04:42:47;101642.47;;;12.98;100.00
29315;BME280;16320;53.954;9.506;2022-09-12T04:45:52;101630.63;;;12.88;100.00
29315;BME280;16320;53.954;9.506;2022-09-12T04:48:56;101608.53;;;12.34;100.00
29315;BME280;16320;53.954;9.506;2022-09-12T04:52:01;101593.81;;;11.88;100.00
29315;BME280;16320;53.954;9.506;2022-09-12T04:55:07;101598.84;;;11.72;100.00
29315;BME280;16320;53.954;9.506;2022-09-12T04:58:11;101598.06;;;11.70;100.00
29315;BME280;16320;53.954;9.506;2022-09-12T05:01:21;101600.31;;;11.80;100.00
29315;BME280;16320;53.954;9.506;2022-09-12T05:04:26;101609.06;;;11.80;100.00
29315;BME280;16320;53.954;9.506;2022-09-12T05:07:31;101611.19;;;11.72;100.00
29315;BME280;16320;53.954;9.506;2022-09-12T05:10:35;101606.56;;;11.77;100.00
29315;BME280;16320;53.954;9.506;2022-09-12T05:13:40;101607.06;;;11.65;100.00
29315;BME280;16320;53.954;9.506;2022-09-12T05:16:44;101610.06;;;11.57;100.00
29315;BME280;16320;53.954;9.506;2022-09-12T05:19:52;101613.78;;;11.51;100.00
29315;BME280;16320;53.954;9.506;2022-09-12T05:22:57;101607.59;;;11.52;100.00
29315;BME280;16320;53.954;9.506;2022-09-12T05:26:04;101603.13;;;11.54;100.00
29315;BME280;16320;53.954;9.506;2022-09-12T05:29:09;101594.75;;;11.45;100.00
29315;BME280;16320;53.954;9.506;2022-09-12T05:32:14;101597.94;;;11.53;100.00
29315;BME280;16320;53.954;9.506;2022-09-12T05:35:19;101607.53;;;11.75;100.00
29315;BME280;16320;53.954;9.506;2022-09-12T05:38:23;101617.63;;;11.85;100.00
29315;BME280;16320;53.954;9.506;2022-09-12T05:41:31;101611.22;;;11.93;100.00
29315;BME280;16320;53.954;9.506;2022-09-12T05:44:36;101621.06;;;12.08;100.00
29315;BME280;16320;53.954;9.506;2022-09-12T05:47:41;101627.09;;;12.31;100.00
29315;BME280;16320;53.954;9.506;2022-09-12T05:50:46;101632.88;;;12.39;100.00
29315;BME280;16320;53.954;9.506;2022-09-12T05:53:56;101636.75;;;12.51;100.00
29315;BME280;16320;53.954;9.506;2022-09-12T05:57:01;101644.31;;;12.58;100.00
29315;BME280;16320;53.954;9.506;2022-09-12T06:00:06;101648.81;;;12.75;100.00
29315;BME280;16320;53.954;9.506;2022-09-12T06:03:12;101658.06;;;12.84;100.00
29315;BME280;16320;53.954;9.506;2022-09-12T06:06:20;101649.59;;;12.77;100.00
29315;BME280;16320;53.954;9.506;2022-09-12T06:09:25;101654.53;;;12.85;100.00
29315;BME280;16320;53.954;9.506;2022-09-12T06:12:31;101645.38;;;12.92;100.00
29315;BME280;16320;53.954;9.506;2022-09-12T06:15:36;101640.53;;;13.02;100.00
29315;BME280;16320;53.954;9.506;2022-09-12T06:18:43;101649.06;;;13.26;100.00
29315;BME280;16320;53.954;9.506;2022-09-12T06:21:50;101642.34;;;13.38;100.00
29315;BME280;16320;53.954;9.506;2022-09-12T06:24:57;101644.94;;;13.40;100.00
29315;BME280;16320;53.954;9.506;2022-09-12T06:28:02;101653.94;;;13.53;100.00
29315;BME280;16320;53.954;9.506;2022-09-12T06:31:17;101654.56;;;13.58;100.00
29315;BME280;16320;53.954;9.506;2022-09-12T06:34:22;101653.88;;;13.72;100.00
29315;BME280;16320;53.954;9.506;2022-09-12T06:37:27;101654.88;;;13.69;100.00
29315;BME280;16320;53.954;9.506;2022-09-12T06:40:32;101650.81;;;13.81;100.00
29315;BME280;16320;53.954;9.506;2022-09-12T06:43:38;101649.47;;;13.90;100.00
29315;BME280;16320;53.954;9.506;2022-09-12T06:46:43;101648.84;;;14.02;100.00
29315;BME280;16320;53.954;9.506;2022-09-12T06:49:48;101655.44;;;14.11;100.00
29315;BME280;16320;53.954;9.506;2022-09-12T06:52:54;101640.50;;;14.10;100.00
29315;BME280;16320;53.954;9.506;2022-09-12T06:56:01;101631.88;;;14.24;100.00
29315;BME280;16320;53.954;9.506;2022-09-12T06:59:06;101638.59;;;14.29;100.00
29315;BME280;16320;53.954;9.506;2022-09-12T07:02:10;101645.22;;;14.38;100.00
29315;BME280;16320;53.954;9.506;2022-09-12T07:05:16;101646.75;;;14.42;100.00
29315;BME280;16320;53.954;9.506;2022-09-12T07:08:20;101645.81;;;14.43;100.00
29315;BME280;16320;53.954;9.506;2022-09-12T07:11:28;101635.94;;;14.47;100.00
29315;BME280;16320;53.954;9.506;2022-09-12T07:14:34;101637.81;;;14.45;100.00
29315;BME280;16320;53.954;9.506;2022-09-12T07:17:39;101635.16;;;14.45;100.00
29315;BME280;16320;53.954;9.506;2022-09-12T07:20:43;101631.16;;;14.54;100.00
29315;BME280;16320;53.954;9.506;2022-09-12T07:23:48;101634.91;;;14.67;100.00
29315;BME280;16320;53.954;9.506;2022-09-12T07:26:52;101633.63;;;14.74;100.00
29315;BME280;16320;53.954;9.506;2022-09-12T07:29:57;101621.75;;;14.81;100.00
29315;BME280;16320;53.954;9.506;2022-09-12T07:33:01;101606.91;;;14.63;100.00
29315;BME280;16320;53.954;9.506;2022-09-12T07:36:11;101611.00;;;14.85;100.00
29315;BME280;16320;53.954;9.506;2022-09-12T07:39:16;101612.47;;;14.90;100.00
29315;BME280;16320;53.954;9.506;2022-09-12T07:42:20;101617.56;;;15.09;100.00
29315;BME280;16320;53.954;9.506;2022-09-12T07:45:25;101599.28;;;15.20;100.00
29315;BME280;16320;53.954;9.506;2022-09-12T07:48:30;101603.88;;;15.33;100.00
29315;BME280;16320;53.954;9.506;2022-09-12T07:51:34;101600.53;;;15.45;100.00
29315;BME280;16320;53.954;9.506;2022-09-12T07:54:38;101589.19;;;15.57;100.00
29315;BME280;16320;53.954;9.506;2022-09-12T07:57:43;101588.66;;;15.67;100.00
29315;BME280;16320;53.954;9.506;2022-09-12T08:00:47;101580.97;;;15.78;100.00
29315;BME280;16320;53.954;9.506;2022-09-12T08:03:56;101565.91;;;15.79;100.00
29315;BME280;16320;53.954;9.506;2022-09-12T08:07:01;101583.47;;;15.96;100.00
29315;BME280;16320;53.954;9.506;2022-09-12T08:10:05;101581.19;;;16.04;100.00
29315;BME280;16320;53.954;9.506;2022-09-12T08:13:10;101570.19;;;16.10;100.00
29315;BME280;16320;53.954;9.506;2022-09-12T08:16:16;101571.91;;;16.11;100.00
29315;BME280;16320;53.954;9.506;2022-09-12T08:19:21;101574.75;;;16.22;100.00
29315;BME280;16320;53.954;9.506;2022-09-12T08:22:25;101575.69;;;16.21;100.00
29315;BME280;16320;53.954;9.506;2022-09-12T08:25:30;101562.06;;;16.27;100.00
29315;BME280;16320;53.954;9.506;2022-09-12T08:28:35;101557.03;;;16.23;100.00
29315;BME280;16320;53.954;9.506;2022-09-12T08:31:40;101555.06;;;16.26;100.00
29315;BME280;16320;53.954;9.506;2022-09-12T08:34:45;101555.72;;;16.30;100.00
29315;BME280;16320;53.954;9.506;2022-09-12T08:37:49;101565.16;;;16.34;100.00
29315;BME280;16320;53.954;9.506;2022-09-12T08:41:17;101571.91;;;16.40;100.00
29315;BME280;16320;53.954;9.506;2022-09-12T08:45:17;101561.28;;;16.40;100.00
29315;BME280;16320;53.954;9.506;2022-09-12T08:48:20;101563.47;;;16.47;100.00
29315;BME280;16320;53.954;9.506;2022-09-12T08:51:25;101567.72;;;16.50;100.00
29315;BME280;16320;53.954;9.506;2022-09-12T08:54:32;101576.03;;;16.58;100.00
29315;BME280;16320;53.954;9.506;2022-09-12T08:57:37;101583.69;;;16.63;100.00
29315;BME280;16320;53.954;9.506;2022-09-12T09:11:03;101574.28;;;16.86;100.00
29315;BME280;16320;53.954;9.506;2022-09-12T09:17:49;101566.69;;;16.94;100.00
29315;BME280;16320;53.954;9.506;2022-09-12T09:24:12;101563.34;;;17.05;100.00
29315;BME280;16320;53.954;9.506;2022-09-12T09:27:45;101528.22;;;17.14;100.00
29315;BME280;16320;53.954;9.506;2022-09-12T09:30:51;101508.38;;;17.20;100.00
29315;BME280;16320;53.954;9.506;2022-09-12T09:33:56;101508.28;;;17.34;100.00
29315;BME280;16320;53.954;9.506;2022-09-12T09:43:29;101530.81;;;17.42;100.00
29315;BME280;16320;53.954;9.506;2022-09-12T09:46:34;101524.13;;;17.49;100.00
29315;BME280;16320;53.954;9.506;2022-09-12T09:49:40;101498.00;;;17.43;100.00
29315;BME280;16320;53.954;9.506;2022-09-12T09:52:46;101502.38;;;17.44;100.00
29315;BME280;16320;53.954;9.506;2022-09-12T09:55:55;101488.09;;;17.45;100.00
29315;BME280;16320;53.954;9.506;2022-09-12T09:59:16;101478.66;;;17.41;100.00
29315;BME280;16320;53.954;9.506;2022-09-12T10:02:21;101489.63;;;17.49;100.00
29315;BME280;16320;53.954;9.506;2022-09-12T10:05:43;101482.69;;;17.59;100.00
29315;BME280;16320;53.954;9.506;2022-09-12T10:08:49;101492.59;;;17.57;100.00
29315;BME280;16320;53.954;9.506;2022-09-12T10:11:55;101465.09;;;17.58;100.00
29315;BME280;16320;53.954;9.506;2022-09-12T10:15:17;101488.84;;;17.72;100.00
29315;BME280;16320;53.954;9.506;2022-09-12T10:18:40;101466.53;;;17.75;100.00
29315;BME280;16320;53.954;9.506;2022-09-12T10:21:50;101468.16;;;17.78;100.00
29315;BME280;16320;53.954;9.506;2022-09-12T10:24:58;101468.16;;;17.78;100.00
29315;BME280;16320;53.954;9.506;2022-09-12T10:28:03;101491.31;;;17.88;100.00
29315;BME280;16320;53.954;9.506;2022-09-12T10:31:13;101488.03;;;17.98;100.00
29315;BME280;16320;53.954;9.506;2022-09-12T10:34:35;101493.75;;;18.04;100.00
29315;BME280;16320;53.954;9.506;2022-09-12T10:38:03;101476.56;;;17.97;100.00
29315;BME280;16320;53.954;9.506;2022-09-12T10:41:10;101483.94;;;18.18;100.00
29315;BME280;16320;53.954;9.506;2022-09-12T10:44:22;101465.84;;;18.23;100.00
29315;BME280;16320;53.954;9.506;2022-09-12T10:47:30;101447.75;;;18.28;100.00
29315;BME280;16320;53.954;9.506;2022-09-12T10:50:38;101484.78;;;18.31;100.00
29315;BME280;16320;53.954;9.506;2022-09-12T10:53:44;101483.56;;;18.35;100.00
29315;BME280;16320;53.954;9.506;2022-09-12T11:00:27;101449.31;;;18.30;100.00
29315;BME280;16320;53.954;9.506;2022-09-12T11:21:24;101443.91;;;18.32;100.00
29315;BME280;16320;53.954;9.506;2022-09-12T11:25:06;101438.13;;;18.38;100.00
29315;BME280;16320;53.954;9.506;2022-09-12T11:28:42;101444.19;;;18.40;100.00
29315;BME280;16320;53.954;9.506;2022-09-12T11:32:36;101442.28;;;18.42;100.00
29315;BME280;16320;53.954;9.506;2022-09-12T11:35:49;101442.31;;;18.54;100.00
29315;BME280;16320;53.954;9.506;2022-09-12T11:42:17;101450.81;;;18.59;100.00
29315;BME280;16320;53.954;9.506;2022-09-12T11:45:33;101452.44;;;18.73;100.00
29315;BME280;16320;53.954;9.506;2022-09-12T11:49:00;101433.06;;;18.83;100.00
29315;BME280;16320;53.954;9.506;2022-09-12T11:52:17;101397.28;;;18.75;100.00
29315;BME280;16320;53.954;9.506;2022-09-12T11:55:29;101436.44;;;18.86;100.00
29315;BME280;16320;53.954;9.506;2022-09-12T11:58:38;101411.53;;;18.87;100.00
29315;BME280;16320;53.954;9.506;2022-09-12T12:01:44;101402.47;;;19.00;100.00
29315;BME280;16320;53.954;9.506;2022-09-12T12:08:11;101377.22;;;19.06;100.00
29315;BME280;16320;53.954;9.506;2022-09-12T12:11:36;101376.09;;;19.09;100.00
29315;BME280;16320;53.954;9.506;2022-09-12T12:14:45;101386.03;;;19.07;100.00
29315;BME280;16320;53.954;9.506;2022-09-12T12:18:21;101387.84;;;18.95;100.00
29315;BME280;16320;53.954;9.506;2022-09-12T12:21:45;101398.25;;;18.98;100.00
29315;BME280;16320;53.954;9.506;2022-09-12T12:35:44;101403.38;;;19.12;100.00
29315;BME280;16320;53.954;9.506;2022-09-12T12:45:47;101379.88;;;19.17;100.00
29315;BME280;16320;53.954;9.506;2022-09-12T12:49:16;101397.06;;;19.13;100.00
29315;BME280;16320;53.954;9.506;2022-09-12T12:52:22;101357.59;;;19.18;100.00
29315;BME280;16320;53.954;9.506;2022-09-12T12:58:45;101348.78;;;19.41;100.00
29315;BME280;16320;53.954;9.506;2022-09-12T13:01:53;101340.91;;;19.50;100.00
29315;BME280;16320;53.954;9.506;2022-09-12T13:05:03;101334.63;;;19.51;100.00
29315;BME280;16320;53.954;9.506;2022-09-12T13:11:34;101307.34;;;19.48;100.00
29315;BME280;16320;53.954;9.506;2022-09-12T13:17:50;101306.75;;;19.55;100.00
29315;BME280;16320;53.954;9.506;2022-09-12T13:21:16;101305.66;;;19.58;100.00
29315;BME280;16320;53.954;9.506;2022-09-12T13:24:22;101297.28;;;19.63;100.00
29315;BME280;16320;53.954;9.506;2022-09-12T13:27:26;101285.66;;;19.64;100.00
29315;BME280;16320;53.954;9.506;2022-09-12T13:30:39;101274.28;;;19.50;100.00
29315;BME280;16320;53.954;9.506;2022-09-12T13:33:52;101279.75;;;19.49;100.00
29315;BME280;16320;53.954;9.506;2022-09-12T13:41:09;101267.50;;;19.46;100.00
29315;BME280;16320;53.954;9.506;2022-09-12T13:44:19;101283.72;;;19.54;100.00
29315;BME280;16320;53.954;9.506;2022-09-12T13:50:52;101256.34;;;19.64;100.00
29315;BME280;16320;53.954;9.506;2022-09-12T13:54:02;101259.63;;;19.56;100.00
29315;BME280;16320;53.954;9.506;2022-09-12T14:00:37;101262.63;;;19.74;100.00
29315;BME280;16320;53.954;9.506;2022-09-12T14:03:53;101252.72;;;19.76;100.00
29315;BME280;16320;53.954;9.506;2022-09-12T14:07:22;101242.06;;;19.65;100.00
29315;BME280;16320;53.954;9.506;2022-09-12T14:10:34;101258.03;;;19.65;100.00
29315;BME280;16320;53.954;9.506;2022-09-12T14:13:39;101271.59;;;19.62;100.00
29315;BME280;16320;53.954;9.506;2022-09-12T14:16:44;101261.53;;;19.65;100.00
29315;BME280;16320;53.954;9.506;2022-09-12T14:19:48;101254.78;;;19.61;100.00
29315;BME280;16320;53.954;9.506;2022-09-12T14:22:53;101251.00;;;19.64;100.00
29315;BME280;16320;53.954;9.506;2022-09-12T14:26:01;101246.50;;;19.64;100.00
29315;BME280;16320;53.954;9.506;2022-09-12T14:29:07;101240.59;;;19.61;100.00
29315;BME280;16320;53.954;9.506;2022-09-12T14:32:22;101258.28;;;19.62;100.00
29315;BME280;16320;53.954;9.506;2022-09-12T14:35:28;101240.59;;;19.61;100.00
29315;BME280;16320;53.954;9.506;2022-09-12T14:38:42;101252.38;;;19.58;100.00
29315;BME280;16320;53.954;9.506;2022-09-12T14:41:48;101255.16;;;19.56;100.00
29315;BME280;16320;53.954;9.506;2022-09-12T14:45:09;101252.97;;;19.62;100.00
29315;BME280;16320;53.954;9.506;2022-09-12T14:48:18;101231.63;;;19.62;100.00
29315;BME280;16320;53.954;9.506;2022-09-12T14:51:30;101229.69;;;19.64;100.00
29315;BME280;16320;53.954;9.506;2022-09-12T14:54:36;101231.19;;;19.56;100.00
29315;BME280;16320;53.954;9.506;2022-09-12T14:57:41;101251.75;;;19.54;100.00
29315;BME280;16320;53.954;9.506;2022-09-12T15:01:02;101221.72;;;19.52;100.00
29315;BME280;16320;53.954;9.506;2022-09-12T15:04:07;101219.53;;;19.57;100.00
29315;BME280;16320;53.954;9.506;2022-09-12T15:08:02;101210.38;;;19.39;100.00
29315;BME280;16320;53.954;9.506;2022-09-12T15:10:59;101205.28;;;19.47;100.00
29315;BME280;16320;53.954;9.506;2022-09-12T15:14:14;101210.00;;;19.55;100.00
29315;BME280;16320;53.954;9.506;2022-09-12T15:17:18;101201.28;;;19.53;100.00
29315;BME280;16320;53.954;9.506;2022-09-12T15:20:23;101181.38;;;19.57;100.00
29315;BME280;16320;53.954;9.506;2022-09-12T15:23:57;101175.69;;;19.62;100.00
29315;BME280;16320;53.954;9.506;2022-09-12T15:27:07;101180.56;;;19.56;100.00
29315;BME280;16320;53.954;9.506;2022-09-12T15:30:12;101192.53;;;19.51;100.00
29315;BME280;16320;53.954;9.506;2022-09-12T15:33:19;101191.25;;;19.45;100.00
29315;BME280;16320;53.954;9.506;2022-09-12T15:36:26;101185.13;;;19.33;100.00
29315;BME280;16320;53.954;9.506;2022-09-12T15:39:32;101178.19;;;19.42;100.00
29315;BME280;16320;53.954;9.506;2022-09-12T15:42:36;101177.47;;;19.40;100.00
29315;BME280;16320;53.954;9.506;2022-09-12T15:45:42;101158.81;;;19.40;100.00
29315;BME280;16320;53.954;9.506;2022-09-12T15:48:46;101177.72;;;19.37;100.00
29315;BME280;16320;53.954;9.506;2022-09-12T15:51:51;101176.25;;;19.33;100.00
29315;BME280;16320;53.954;9.506;2022-09-12T15:54:56;101184.25;;;19.33;100.00
29315;BME280;16320;53.954;9.506;2022-09-12T15:58:00;101163.44;;;19.27;100.00
29315;BME280;16320;53.954;9.506;2022-09-12T16:01:16;101171.19;;;19.18;100.00
29315;BME280;16320;53.954;9.506;2022-09-12T16:04:24;101187.19;;;19.18;100.00
29315;BME280;16320;53.954;9.506;2022-09-12T16:07:28;101192.16;;;19.12;100.00
29315;BME280;16320;53.954;9.506;2022-09-12T16:10:34;101217.22;;;19.09;100.00
29315;BME280;16320;53.954;9.506;2022-09-12T16:13:38;101214.44;;;18.99;100.00
29315;BME280;16320;53.954;9.506;2022-09-12T16:16:45;101217.34;;;18.96;100.00
29315;BME280;16320;53.954;9.506;2022-09-12T16:19:54;101213.06;;;18.82;100.00
29315;BME280;16320;53.954;9.506;2022-09-12T16:22:58;101190.94;;;18.82;100.00
29315;BME280;16320;53.954;9.506;2022-09-12T16:26:04;101179.97;;;18.87;100.00
29315;BME280;16320;53.954;9.506;2022-09-12T16:29:12;101170.28;;;18.86;100.00
29315;BME280;16320;53.954;9.506;2022-09-12T16:32:17;101157.94;;;18.84;100.00
29315;BME280;16320;53.954;9.506;2022-09-12T16:35:22;101172.44;;;18.80;100.00
29315;BME280;16320;53.954;9.506;2022-09-12T16:38:26;101156.97;;;18.74;100.00
29315;BME280;16320;53.954;9.506;2022-09-12T16:41:31;101142.56;;;18.77;100.00
29315;BME280;16320;53.954;9.506;2022-09-12T16:44:35;101129.03;;;18.80;100.00
29315;BME280;16320;53.954;9.506;2022-09-12T16:47:39;101137.63;;;18.72;100.00
29315;BME280;16320;53.954;9.506;2022-09-12T16:50:53;101143.91;;;18.71;100.00
29315;BME280;16320;53.954;9.506;2022-09-12T16:53:58;101137.50;;;18.62;100.00
29315;BME280;16320;53.954;9.506;2022-09-12T16:57:03;101134.13;;;18.60;100.00
29315;BME280;16320;53.954;9.506;2022-09-12T17:00:10;101155.66;;;18.57;100.00
29315;BME280;16320;53.954;9.506;2022-09-12T17:03:15;101146.31;;;18.52;100.00
29315;BME280;16320;53.954;9.506;2022-09-12T17:06:20;101120.31;;;18.55;100.00
29315;BME280;16320;53.954;9.506;2022-09-12T17:09:25;101116.34;;;18.50;100.00
29315;BME280;16320;53.954;9.506;2022-09-12T17:12:31;101125.91;;;18.52;100.00
29315;BME280;16320;53.954;9.506;2022-09-12T17:15:36;101116.22;;;18.51;100.00
29315;BME280;16320;53.954;9.506;2022-09-12T17:18:41;101115.75;;;18.46;100.00
29315;BME280;16320;53.954;9.506;2022-09-12T17:21:46;101116.81;;;18.43;100.00
29315;BME280;16320;53.954;9.506;2022-09-12T17:24:53;101120.72;;;18.39;100.00
29315;BME280;16320;53.954;9.506;2022-09-12T17:27:57;101126.50;;;18.33;100.00
29315;BME280;16320;53.954;9.506;2022-09-12T17:31:05;101105.22;;;18.33;100.00
29315;BME280;16320;53.954;9.506;2022-09-12T17:34:11;101106.91;;;18.34;100.00
29315;BME280;16320;53.954;9.506;2022-09-12T17:37:19;101096.25;;;18.34;100.00
29315;BME280;16320;53.954;9.506;2022-09-12T17:40:25;101110.91;;;18.28;100.00
29315;BME280;16320;53.954;9.506;2022-09-12T17:43:51;101093.59;;;18.23;100.00
29315;BME280;16320;53.954;9.506;2022-09-12T17:46:59;101084.44;;;18.27;100.00
29315;BME280;16320;53.954;9.506;2022-09-12T17:50:04;101087.81;;;18.29;100.00
29315;BME280;16320;53.954;9.506;2022-09-12T17:53:28;101104.63;;;18.29;100.00
29315;BME280;16320;53.954;9.506;2022-09-12T17:56:34;101102.91;;;18.17;100.00
29315;BME280;16320;53.954;9.506;2022-09-12T17:59:40;101087.19;;;18.14;100.00
29315;BME280;16320;53.954;9.506;2022-09-12T18:02:44;101072.34;;;18.11;100.00
29315;BME280;16320;53.954;9.506;2022-09-12T18:05:55;101059.78;;;18.14;100.00
29315;BME280;16320;53.954;9.506;2022-09-12T18:09:06;101057.47;;;18.20;100.00
29315;BME280;16320;53.954;9.506;2022-09-12T18:12:11;101035.00;;;18.13;100.00
29315;BME280;16320;53.954;9.506;2022-09-12T18:15:15;101034.63;;;18.18;100.00
29315;BME280;16320;53.954;9.506;2022-09-12T18:18:21;101047.31;;;18.14;100.00
29315;BME280;16320;53.954;9.506;2022-09-12T18:21:26;101034.16;;;18.13;100.00